Time;durP1;ratioP1;P1;durP2;ratioP2;P2;SDS_P1;SDS_P2;PMS_P1;PMS_P2;Temp;Humidity;BMP_temperature;BMP_pressure;BME280_temperature;BME280_humidity;BME280_pressure;Samples;Min_cycle;Max_cycle;Signal;HPM_P1;HPM_P2
2021/12/27 00:00:11;;;;;;;;;83.25;67.00;;;;;;;;5080968;28;11458;-78
2021/12/27 00:02:37;;;;;;;;;87.00;68.25;;;;;;;;5080308;28;11508;-79
2021/12/27 00:05:03;;;;;;;;;85.75;68.25;;;;;;;;5081300;28;11644;-79
2021/12/27 00:07:29;;;;;;;;;87.00;69.00;;;;;;;;5079280;28;9908;-79
2021/12/27 00:09:54;;;;;;;;;83.50;67.25;;;;;;;;5081156;28;11442;-79
2021/12/27 00:12:20;;;;;;;;;75.33;60.33;;;;;;;;5080809;28;11375;-79
2021/12/27 00:14:45;;;;;;;;;86.75;68.25;;;;;;;;5080897;28;12210;-79
2021/12/27 00:17:10;;;;;;;;;80.50;64.50;;;;;;;;5080158;28;11608;-79
2021/12/27 00:19:36;;;;;;;;;83.50;66.00;;;;;;;;5080256;28;10922;-79
2021/12/27 00:22:01;;;;;;;;;84.00;66.00;;;;;;;;5080494;28;11398;-78
2021/12/27 00:24:26;;;;;;;;;85.75;66.75;;;;;;;;5080246;28;8882;-80
2021/12/27 00:26:52;;;;;;;;;83.50;65.00;;;;;;;;5079512;28;11605;-79
2021/12/27 00:29:18;;;;;;;;;82.67;65.00;;;;;;;;5080593;28;11527;-79
2021/12/27 00:31:43;;;;;;;;;87.50;65.75;;;;;;;;5080350;28;9040;-79
2021/12/27 00:34:08;;;;;;;;;83.75;66.00;;;;;;;;5080418;28;11431;-79
2021/12/27 00:36:34;;;;;;;;;85.75;67.50;;;;;;;;5080374;28;11748;-79
2021/12/27 00:38:59;;;;;;;;;82.00;65.67;;;;;;;;5079979;28;11374;-79
2021/12/27 00:41:24;;;;;;;;;80.00;63.67;;;;;;;;5080144;28;11427;-79
2021/12/27 00:43:50;;;;;;;;;80.00;65.00;;;;;;;;5080117;28;8785;-80
2021/12/27 00:46:15;;;;;;;;;79.00;62.00;;;;;;;;5078572;28;10968;-79
2021/12/27 00:48:40;;;;;;;;;83.00;63.67;;;;;;;;5078342;28;10768;-80
2021/12/27 00:51:08;;;;;;;;;80.33;64.00;;;;;;;;5079532;28;13301;-83
2021/12/27 00:53:33;;;;;;;;;72.67;58.33;;;;;;;;5078727;28;15003;-83
2021/12/27 00:55:58;;;;;;;;;78.67;60.33;;;;;;;;5079770;28;13337;-83
2021/12/27 00:58:24;;;;;;;;;71.67;57.00;;;;;;;;5079875;28;9583;-83
2021/12/27 01:00:50;;;;;;;;;66.33;53.33;;;;;;;;5079921;28;13449;-83
2021/12/27 01:03:16;;;;;;;;;75.00;60.33;;;;;;;;5079626;28;13525;-82
2021/12/27 01:05:41;;;;;;;;;77.67;60.67;;;;;;;;5079232;28;12840;-83
2021/12/27 01:08:06;;;;;;;;;73.67;58.33;;;;;;;;5080498;28;11470;-83
2021/12/27 01:13:20;;;;;;;;;53.00;46.33;;;;;;;;5079823;28;13190;-83
2021/12/27 01:18:11;;;;;;;;;58.00;48.67;;;;;;;;5079577;28;11506;-84
2021/12/27 01:20:36;;;;;;;;;67.00;55.67;;;;;;;;5080158;28;8913;-86
2021/12/27 01:23:02;;;;;;;;;64.67;53.00;;;;;;;;5080282;28;10350;-86
2021/12/27 01:25:27;;;;;;;;;68.00;54.67;;;;;;;;5080111;28;11388;-85
2021/12/27 01:27:53;;;;;;;;;74.67;59.00;;;;;;;;5079891;28;13279;-86
2021/12/27 01:30:19;;;;;;;;;72.67;58.33;;;;;;;;5079780;28;13704;-85
2021/12/27 01:32:52;;;;;;;;;67.67;57.00;;;;;;;;5079353;28;11633;-85
2021/12/27 01:35:17;;;;;;;;;72.33;58.00;;;;;;;;5078587;28;13691;-85
2021/12/27 01:37:43;;;;;;;;;65.00;54.00;;;;;;;;5079699;28;12712;-85
2021/12/27 01:40:10;;;;;;;;;60.33;50.00;;;;;;;;5079645;28;12271;-85
2021/12/27 01:42:35;;;;;;;;;63.33;51.67;;;;;;;;5079009;28;10721;-78
2021/12/27 01:45:00;;;;;;;;;58.00;46.00;;;;;;;;5079262;28;11390;-80
2021/12/27 01:47:28;;;;;;;;;60.00;46.67;;;;;;;;5078923;28;14719;-81
2021/12/27 01:49:53;;;;;;;;;61.33;48.33;;;;;;;;5079621;28;13533;-80
2021/12/27 01:52:19;;;;;;;;;63.67;51.00;;;;;;;;5079400;28;12768;-81
2021/12/27 01:54:44;;;;;;;;;61.33;50.00;;;;;;;;5079400;28;12217;-81
2021/12/27 01:57:09;;;;;;;;;64.00;52.67;;;;;;;;5078900;28;10526;-80
2021/12/27 01:59:35;;;;;;;;;66.33;54.33;;;;;;;;5078889;28;11445;-80
2021/12/27 02:02:00;;;;;;;;;76.00;59.67;;;;;;;;5077232;28;12197;-80
2021/12/27 02:04:25;;;;;;;;;73.33;59.00;;;;;;;;5078624;28;13286;-80
2021/12/27 02:06:50;;;;;;;;;76.67;60.33;;;;;;;;5078821;28;11429;-81
2021/12/27 02:09:23;;;;;;;;;67.67;55.33;;;;;;;;5080535;28;12245;-81
2021/12/27 02:11:50;;;;;;;;;71.33;57.00;;;;;;;;5082540;28;10611;-81
2021/12/27 02:14:15;;;;;;;;;70.00;53.67;;;;;;;;5082031;28;13543;-81
2021/12/27 02:16:40;;;;;;;;;65.67;54.00;;;;;;;;5081899;28;12791;-81
2021/12/27 02:19:06;;;;;;;;;70.00;56.00;;;;;;;;5082967;28;13232;-81
2021/12/27 02:21:31;;;;;;;;;71.33;59.00;;;;;;;;5082678;28;12214;-81
2021/12/27 02:23:57;;;;;;;;;67.33;54.67;;;;;;;;5082809;28;10626;-80
2021/12/27 02:26:22;;;;;;;;;61.33;51.00;;;;;;;;5082094;28;13903;-81
2021/12/27 02:28:48;;;;;;;;;68.00;54.00;;;;;;;;5082589;28;11998;-79
2021/12/27 02:31:14;;;;;;;;;66.67;56.33;;;;;;;;5082247;28;10567;-78
2021/12/27 02:33:40;;;;;;;;;63.67;54.00;;;;;;;;5081846;28;12020;-79
2021/12/27 02:36:06;;;;;;;;;72.00;55.33;;;;;;;;5082391;28;11458;-79
2021/12/27 02:38:33;;;;;;;;;74.67;55.00;;;;;;;;5082563;28;13261;-79
2021/12/27 02:40:59;;;;;;;;;64.33;51.33;;;;;;;;5081919;28;11647;-80
2021/12/27 02:43:25;;;;;;;;;58.67;46.67;;;;;;;;5081923;28;14640;-80
2021/12/27 02:45:52;;;;;;;;;60.33;50.00;;;;;;;;5082420;28;13442;-80
2021/12/27 02:48:19;;;;;;;;;52.00;47.00;;;;;;;;5082024;28;13504;-81
2021/12/27 02:50:45;;;;;;;;;57.33;46.67;;;;;;;;5082024;28;12559;-80
2021/12/27 02:53:11;;;;;;;;;48.67;43.00;;;;;;;;5082559;28;11644;-80
2021/12/27 02:55:36;;;;;;;;;48.33;42.00;;;;;;;;5082305;28;13327;-80
2021/12/27 02:58:02;;;;;;;;;53.00;42.00;;;;;;;;5082089;28;9796;-80
2021/12/27 03:00:29;;;;;;;;;48.33;40.67;;;;;;;;5080454;28;12200;-79
2021/12/27 03:02:56;;;;;;;;;47.33;39.00;;;;;;;;5081208;28;13484;-79
2021/12/27 03:05:22;;;;;;;;;40.00;35.67;;;;;;;;5081960;28;12948;-79
2021/12/27 03:07:48;;;;;;;;;36.50;34.50;;;;;;;;5081432;28;11631;-79
2021/12/27 03:10:14;;;;;;;;;35.25;29.50;;;;;;;;5081470;28;13741;-81
2021/12/27 03:12:40;;;;;;;;;35.00;34.33;;;;;;;;5080769;28;12742;-80
2021/12/27 03:15:09;;;;;;;;;36.00;34.00;;;;;;;;5081790;28;12477;-80
2021/12/27 03:17:36;;;;;;;;;32.25;29.50;;;;;;;;5081664;28;11514;-80
2021/12/27 03:20:02;;;;;;;;;26.50;20.50;;;;;;;;5081322;28;12290;-79
2021/12/27 03:22:27;;;;;;;;;35.00;32.75;;;;;;;;5081670;28;13010;-79
2021/12/27 03:24:53;;;;;;;;;36.75;30.00;;;;;;;;5079518;28;15454;-79
2021/12/27 03:27:18;;;;;;;;;38.33;34.00;;;;;;;;5080851;28;11679;-80
2021/12/27 03:29:43;;;;;;;;;36.25;33.25;;;;;;;;5081148;28;9606;-79
2021/12/27 03:32:08;;;;;;;;;35.67;35.67;;;;;;;;5081264;28;11692;-80
2021/12/27 03:34:41;;;;;;;;;35.00;31.00;;;;;;;;5080895;28;11377;-79
2021/12/27 03:37:06;;;;;;;;;35.00;33.50;;;;;;;;5081511;28;11871;-79
2021/12/27 03:39:31;;;;;;;;;35.00;29.25;;;;;;;;5081334;28;11583;-79
2021/12/27 03:41:57;;;;;;;;;34.00;32.33;;;;;;;;5081302;28;10170;-79
2021/12/27 03:44:22;;;;;;;;;35.33;31.00;;;;;;;;5081367;28;9823;-79
2021/12/27 03:46:48;;;;;;;;;35.00;30.75;;;;;;;;5080854;28;11405;-79
2021/12/27 03:49:13;;;;;;;;;38.00;34.75;;;;;;;;5080750;28;10594;-79
2021/12/27 03:51:43;;;;;;;;;31.25;28.50;;;;;;;;5080932;28;8908;-78
2021/12/27 03:54:08;;;;;;;;;34.00;32.00;;;;;;;;5080355;28;12510;-80
2021/12/27 03:56:33;;;;;;;;;28.67;27.67;;;;;;;;5078414;28;12898;-80
2021/12/27 03:59:19;;;;;;;;;35.67;31.33;;;;;;;;5080503;28;13339;-80
2021/12/27 04:01:44;;;;;;;;;36.33;33.67;;;;;;;;5080639;28;13592;-79
2021/12/27 04:04:09;;;;;;;;;39.25;31.00;;;;;;;;5079831;28;13478;-80
2021/12/27 04:06:34;;;;;;;;;35.00;30.50;;;;;;;;5081095;28;12528;-80
2021/12/27 04:08:59;;;;;;;;;28.50;26.00;;;;;;;;5081038;28;11432;-81
2021/12/27 04:11:25;;;;;;;;;42.00;34.33;;;;;;;;5080968;28;13963;-79
2021/12/27 04:13:50;;;;;;;;;31.75;26.50;;;;;;;;5080730;28;13267;-80
2021/12/27 04:16:15;;;;;;;;;36.50;29.75;;;;;;;;5080573;28;13227;-80
2021/12/27 04:18:41;;;;;;;;;45.67;39.33;;;;;;;;5080704;28;11535;-80
2021/12/27 04:21:06;;;;;;;;;43.00;39.00;;;;;;;;5080257;28;12912;-80
2021/12/27 04:23:31;;;;;;;;;47.67;39.00;;;;;;;;5080167;28;11405;-79
2021/12/27 04:25:57;;;;;;;;;49.33;42.33;;;;;;;;5079964;28;9313;-80
2021/12/27 04:28:22;;;;;;;;;46.67;41.33;;;;;;;;5080374;28;12368;-79
2021/12/27 04:30:48;;;;;;;;;52.00;43.00;;;;;;;;5079786;28;10618;-81
2021/12/27 04:33:13;;;;;;;;;35.33;31.33;;;;;;;;5077997;28;15375;-79
2021/12/27 04:35:38;;;;;;;;;43.67;39.33;;;;;;;;5079816;28;13744;-80
2021/12/27 04:38:04;;;;;;;;;50.33;43.00;;;;;;;;5080838;28;12196;-80
2021/12/27 04:40:30;;;;;;;;;46.67;41.33;;;;;;;;5080566;28;13711;-79
2021/12/27 04:43:05;;;;;;;;;56.67;43.33;;;;;;;;5080484;28;13354;-79
2021/12/27 04:45:31;;;;;;;;;46.67;41.67;;;;;;;;5080495;28;10646;-79
2021/12/27 04:47:56;;;;;;;;;50.67;43.67;;;;;;;;5080252;28;13217;-80
2021/12/27 04:50:23;;;;;;;;;42.67;39.00;;;;;;;;5078567;28;12341;-80
2021/12/27 04:52:52;;;;;;;;;40.33;35.00;;;;;;;;5079921;28;13881;-80
2021/12/27 04:55:18;;;;;;;;;47.33;42.00;;;;;;;;5079917;28;10626;-79
2021/12/27 04:57:43;;;;;;;;;47.33;42.67;;;;;;;;5079890;28;9670;-78
2021/12/27 05:00:09;;;;;;;;;44.00;39.33;;;;;;;;5080826;28;8868;-79
2021/12/27 05:02:34;;;;;;;;;43.33;40.67;;;;;;;;5080381;28;12213;-79
2021/12/27 05:04:59;;;;;;;;;50.33;41.33;;;;;;;;5079781;28;12575;-80
2021/12/27 05:07:24;;;;;;;;;52.33;47.00;;;;;;;;5080123;28;13207;-79
2021/12/27 05:09:50;;;;;;;;;49.33;44.67;;;;;;;;5079773;28;11403;-80
2021/12/27 05:12:15;;;;;;;;;53.67;44.67;;;;;;;;5079871;28;13247;-79
2021/12/27 05:14:40;;;;;;;;;62.33;47.00;;;;;;;;5080036;28;10247;-80
2021/12/27 05:17:05;;;;;;;;;59.67;50.33;;;;;;;;5079515;28;13403;-80
2021/12/27 05:19:31;;;;;;;;;57.00;47.00;;;;;;;;5077991;28;15304;-81
2021/12/27 05:21:56;;;;;;;;;56.67;45.67;;;;;;;;5079704;28;12216;-81
2021/12/27 05:24:22;;;;;;;;;59.00;47.00;;;;;;;;5078882;28;11510;-79
2021/12/27 05:26:49;;;;;;;;;58.33;48.33;;;;;;;;5079403;28;11752;-81
2021/12/27 05:29:15;;;;;;;;;57.67;47.33;;;;;;;;5079670;28;11859;-80
2021/12/27 05:31:40;;;;;;;;;64.00;48.67;;;;;;;;5079811;28;10998;-79
2021/12/27 05:34:05;;;;;;;;;55.00;47.00;;;;;;;;5079425;28;13316;-80
2021/12/27 05:36:31;;;;;;;;;57.00;48.00;;;;;;;;5079527;28;13455;-79
2021/12/27 05:38:56;;;;;;;;;60.33;49.33;;;;;;;;5079615;28;8778;-80
2021/12/27 05:41:21;;;;;;;;;55.00;47.00;;;;;;;;5079341;28;13426;-80
2021/12/27 05:43:47;;;;;;;;;59.00;47.33;;;;;;;;5081435;28;13445;-79
2021/12/27 05:46:12;;;;;;;;;58.00;47.00;;;;;;;;5082687;28;11652;-79
2021/12/27 05:48:37;;;;;;;;;55.33;46.33;;;;;;;;5082701;28;11383;-80
2021/12/27 05:51:02;;;;;;;;;56.67;45.33;;;;;;;;5081857;28;13748;-80
2021/12/27 05:53:28;;;;;;;;;59.00;50.00;;;;;;;;5083402;28;10542;-80
2021/12/27 05:55:53;;;;;;;;;52.33;43.00;;;;;;;;5082954;28;12517;-77
2021/12/27 05:58:18;;;;;;;;;63.33;51.67;;;;;;;;5083109;28;12848;-78
2021/12/27 06:00:44;;;;;;;;;60.00;50.00;;;;;;;;5082846;28;13491;-80
2021/12/27 06:03:09;;;;;;;;;61.00;48.33;;;;;;;;5082884;28;11524;-79
2021/12/27 06:05:34;;;;;;;;;51.00;44.00;;;;;;;;5082717;28;12458;-79
2021/12/27 06:08:01;;;;;;;;;57.00;47.00;;;;;;;;5082574;28;13556;-79
2021/12/27 06:10:26;;;;;;;;;54.00;43.00;;;;;;;;5082816;28;10366;-79
2021/12/27 06:12:51;;;;;;;;;58.00;43.00;;;;;;;;5082618;28;8813;-79
2021/12/27 06:15:17;;;;;;;;;47.33;42.00;;;;;;;;5082694;28;8799;-80
2021/12/27 06:17:42;;;;;;;;;46.00;41.33;;;;;;;;5083067;28;12270;-80
2021/12/27 06:20:10;;;;;;;;;53.67;43.33;;;;;;;;5082741;28;12684;-80
2021/12/27 06:22:36;;;;;;;;;46.00;42.00;;;;;;;;5082295;28;12339;-79
2021/12/27 06:25:03;;;;;;;;;61.67;45.00;;;;;;;;5082095;28;13382;-80
2021/12/27 06:27:32;;;;;;;;;51.00;42.00;;;;;;;;5081725;28;12649;-78
2021/12/27 06:29:58;;;;;;;;;52.33;44.67;;;;;;;;5082620;28;12535;-77
2021/12/27 06:32:23;;;;;;;;;48.33;42.00;;;;;;;;5081482;28;11651;-77
2021/12/27 06:34:48;;;;;;;;;39.33;38.00;;;;;;;;5082357;28;13466;-76
2021/12/27 06:37:14;;;;;;;;;42.33;39.00;;;;;;;;5082711;28;10376;-75
2021/12/27 06:39:39;;;;;;;;;52.67;44.00;;;;;;;;5082661;28;10363;-77
2021/12/27 06:42:05;;;;;;;;;47.67;42.67;;;;;;;;5082392;28;12492;-74
2021/12/27 06:44:31;;;;;;;;;48.00;41.33;;;;;;;;5082127;28;13441;-76
2021/12/27 06:46:59;;;;;;;;;47.00;39.00;;;;;;;;5081843;28;11399;-76
2021/12/27 06:49:25;;;;;;;;;37.33;35.00;;;;;;;;5082359;28;13380;-77
2021/12/27 06:51:50;;;;;;;;;55.00;45.33;;;;;;;;5081838;28;12246;-73
2021/12/27 06:54:15;;;;;;;;;49.33;41.33;;;;;;;;5081575;28;13691;-74
2021/12/27 06:56:40;;;;;;;;;57.00;47.00;;;;;;;;5076277;28;14258;-74
2021/12/27 06:59:06;;;;;;;;;54.00;43.67;;;;;;;;5081892;28;13665;-74
2021/12/27 07:01:31;;;;;;;;;54.33;44.33;;;;;;;;5081952;28;11436;-74
2021/12/27 07:03:56;;;;;;;;;53.33;42.33;;;;;;;;5081859;28;10466;-74
2021/12/27 07:06:22;;;;;;;;;54.33;46.00;;;;;;;;5079934;28;9138;-74
2021/12/27 07:08:48;;;;;;;;;48.33;38.67;;;;;;;;5081468;28;12647;-75
2021/12/27 07:11:14;;;;;;;;;51.33;42.00;;;;;;;;5081508;28;13359;-73
2021/12/27 07:13:39;;;;;;;;;51.33;43.33;;;;;;;;5080977;28;13246;-72
2021/12/27 07:16:05;;;;;;;;;49.00;41.00;;;;;;;;5081391;28;8904;-73
2021/12/27 07:18:30;;;;;;;;;42.00;38.33;;;;;;;;5081094;28;14316;-73
2021/12/27 07:20:56;;;;;;;;;50.67;42.00;;;;;;;;5080366;28;13160;-73
2021/12/27 07:23:21;;;;;;;;;47.00;38.00;;;;;;;;5080062;28;13381;-74
2021/12/27 07:25:47;;;;;;;;;52.00;41.67;;;;;;;;5086082;28;12214;-73
2021/12/27 07:28:12;;;;;;;;;52.33;44.33;;;;;;;;5091596;28;13199;-71
2021/12/27 07:30:37;;;;;;;;;51.00;43.00;;;;;;;;5092800;28;10594;-73
2021/12/27 07:33:03;;;;;;;;;50.67;38.00;;;;;;;;5090183;28;12105;-74
2021/12/27 07:35:28;;;;;;;;;44.00;35.00;;;;;;;;5091182;28;11854;-72
2021/12/27 07:37:54;;;;;;;;;43.67;38.33;;;;;;;;5088686;28;12448;-74
2021/12/27 07:40:19;;;;;;;;;46.67;40.00;;;;;;;;5089516;28;11745;-74
2021/12/27 07:42:45;;;;;;;;;54.00;45.00;;;;;;;;5100886;28;12433;-75
2021/12/27 07:45:10;;;;;;;;;55.00;46.33;;;;;;;;5095659;28;12312;-74
2021/12/27 07:47:35;;;;;;;;;57.00;46.67;;;;;;;;5084679;28;11387;-71
2021/12/27 07:50:01;;;;;;;;;59.33;47.33;;;;;;;;5090929;28;11441;-71
2021/12/27 07:52:26;;;;;;;;;46.33;39.67;;;;;;;;5092771;28;11687;-73
2021/12/27 07:54:51;;;;;;;;;50.33;43.33;;;;;;;;5078238;28;14459;-74
2021/12/27 07:57:16;;;;;;;;;53.00;45.33;;;;;;;;5078326;28;13292;-71
2021/12/27 07:59:42;;;;;;;;;58.00;47.67;;;;;;;;5079144;28;10418;-72
2021/12/27 08:02:10;;;;;;;;;52.33;44.00;;;;;;;;5079528;28;11362;-72
2021/12/27 08:04:35;;;;;;;;;57.00;48.00;;;;;;;;5079078;28;11686;-71
2021/12/27 08:07:01;;;;;;;;;59.33;49.33;;;;;;;;5078261;28;10361;-76
2021/12/27 08:09:26;;;;;;;;;58.67;49.33;;;;;;;;5080191;28;11423;-74
2021/12/27 08:11:51;;;;;;;;;56.33;46.67;;;;;;;;5080315;28;9101;-73
2021/12/27 08:14:17;;;;;;;;;59.33;49.00;;;;;;;;5080266;28;11395;-72
2021/12/27 08:16:42;;;;;;;;;63.00;50.00;;;;;;;;5080444;28;11894;-75
2021/12/27 08:19:08;;;;;;;;;61.67;50.67;;;;;;;;5080757;28;12882;-73
2021/12/27 08:21:33;;;;;;;;;57.33;48.33;;;;;;;;5080682;28;11396;-75
2021/12/27 08:23:58;;;;;;;;;61.67;50.00;;;;;;;;5080448;28;13241;-75
2021/12/27 08:26:24;;;;;;;;;63.33;49.67;;;;;;;;5079839;28;13232;-74
2021/12/27 08:28:51;;;;;;;;;61.00;50.00;;;;;;;;5080503;28;12232;-76
2021/12/27 08:31:16;;;;;;;;;52.33;42.33;;;;;;;;5080218;28;12286;-74
2021/12/27 08:33:41;;;;;;;;;59.67;47.67;;;;;;;;5079592;28;13453;-75
2021/12/27 08:36:07;;;;;;;;;55.33;46.67;;;;;;;;5079495;28;11447;-77
2021/12/27 08:38:32;;;;;;;;;53.00;42.33;;;;;;;;5080726;28;10892;-80
2021/12/27 08:40:58;;;;;;;;;49.67;41.67;;;;;;;;5080355;28;11478;-80
2021/12/27 08:43:25;;;;;;;;;47.00;39.67;;;;;;;;5080543;28;13383;-74
2021/12/27 08:45:50;;;;;;;;;52.33;41.00;;;;;;;;5079970;28;13108;-74
2021/12/27 08:48:16;;;;;;;;;47.33;40.33;;;;;;;;5078630;28;15805;-75
2021/12/27 08:50:42;;;;;;;;;48.67;38.67;;;;;;;;5079468;28;13565;-73
2021/12/27 08:53:08;;;;;;;;;56.00;47.33;;;;;;;;5079148;28;12951;-74
2021/12/27 08:55:34;;;;;;;;;69.00;55.00;;;;;;;;5079469;28;13273;-75
2021/12/27 08:58:00;;;;;;;;;66.67;53.67;;;;;;;;5080049;28;13433;-74
2021/12/27 09:00:25;;;;;;;;;65.00;53.00;;;;;;;;5079859;28;11387;-75
2021/12/27 09:02:50;;;;;;;;;64.33;51.33;;;;;;;;5079958;28;13039;-75
2021/12/27 09:05:16;;;;;;;;;68.33;53.00;;;;;;;;5080249;28;11950;-75
2021/12/27 09:07:41;;;;;;;;;62.00;51.00;;;;;;;;5079474;28;11843;-74
2021/12/27 09:10:07;;;;;;;;;58.00;47.67;;;;;;;;5079871;28;10353;-75
2021/12/27 09:12:33;;;;;;;;;60.33;50.33;;;;;;;;5079327;28;13518;-75
2021/12/27 09:14:58;;;;;;;;;65.00;51.00;;;;;;;;5079483;28;13299;-75
2021/12/27 09:17:23;;;;;;;;;59.00;49.67;;;;;;;;5078725;28;11614;-75
2021/12/27 09:19:49;;;;;;;;;64.67;53.33;;;;;;;;5079723;28;13603;-77
2021/12/27 09:22:15;;;;;;;;;66.67;55.00;;;;;;;;5078370;28;14031;-86
2021/12/27 09:24:40;;;;;;;;;64.00;52.33;;;;;;;;5079446;28;11529;-83
2021/12/27 09:27:06;;;;;;;;;61.00;49.67;;;;;;;;5078253;28;11970;-83
2021/12/27 09:29:34;;;;;;;;;63.67;51.67;;;;;;;;5075267;28;84530;-80
2021/12/27 09:31:59;;;;;;;;;55.33;44.67;;;;;;;;5079715;28;11405;-80
2021/12/27 09:34:24;;;;;;;;;58.00;46.67;;;;;;;;5078118;28;14463;-85
2021/12/27 09:36:50;;;;;;;;;49.67;40.67;;;;;;;;5078195;28;10889;-84
2021/12/27 09:39:15;;;;;;;;;44.33;37.67;;;;;;;;5077949;28;14268;-81
2021/12/27 09:41:41;;;;;;;;;32.50;32.25;;;;;;;;5079801;28;12005;-86
2021/12/27 09:44:06;;;;;;;;;42.50;36.00;;;;;;;;5079376;28;13786;-83
2021/12/27 09:46:31;;;;;;;;;61.00;48.67;;;;;;;;5077316;28;15121;-79
2021/12/27 09:49:02;;;;;;;;;29.50;28.00;;;;;;;;5079255;28;13498;-76
2021/12/27 09:51:28;;;;;;;;;39.50;31.75;;;;;;;;5078727;28;15938;-75
2021/12/27 09:53:54;;;;;;;;;29.00;28.75;;;;;;;;5078492;28;13511;-77
2021/12/27 09:56:19;;;;;;;;;27.50;27.50;;;;;;;;5078398;28;12739;-75
2021/12/27 09:58:44;;;;;;;;;20.25;19.50;;;;;;;;5078614;28;11385;-84
2021/12/27 10:01:10;;;;;;;;;20.75;18.50;;;;;;;;5078871;28;12753;-80
2021/12/27 10:03:46;;;;;;;;;21.00;15.00;;;;;;;;5078974;28;8782;-81
2021/12/27 10:06:12;;;;;;;;;21.50;13.25;;;;;;;;5077446;28;11749;-81
2021/12/27 10:08:37;;;;;;;;;19.25;19.00;;;;;;;;5078283;28;11529;-78
2021/12/27 10:11:03;;;;;;;;;22.75;17.00;;;;;;;;5078727;28;13579;-83
2021/12/27 10:13:28;;;;;;;;;19.50;17.75;;;;;;;;5077066;28;13754;-85
2021/12/27 10:15:54;;;;;;;;;20.00;18.75;;;;;;;;5069612;28;15269;-80
2021/12/27 10:18:21;;;;;;;;;19.00;15.50;;;;;;;;5073146;28;13374;-76
2021/12/27 10:20:46;;;;;;;;;20.50;17.00;;;;;;;;5078877;28;13375;-76
2021/12/27 10:23:18;;;;;;;;;19.50;18.25;;;;;;;;5078843;28;13277;-82
2021/12/27 10:25:43;;;;;;;;;24.00;19.00;;;;;;;;5075867;28;13726;-76
2021/12/27 10:28:09;;;;;;;;;21.50;21.00;;;;;;;;5078002;28;13311;-76
2021/12/27 10:30:36;;;;;;;;;23.75;20.25;;;;;;;;5065865;28;12495;-77
2021/12/27 10:33:04;;;;;;;;;18.50;17.75;;;;;;;;5060846;28;11657;-77
2021/12/27 10:35:40;;;;;;;;;19.00;16.00;;;;;;;;5061339;28;12512;-75
2021/12/27 10:38:24;;;;;;;;;19.75;15.00;;;;;;;;5061021;28;11766;-76
2021/12/27 10:40:54;;;;;;;;;18.75;18.75;;;;;;;;5061271;28;11504;-76
2021/12/27 10:43:32;;;;;;;;;19.75;17.75;;;;;;;;5061754;28;11672;-75
2021/12/27 10:46:01;;;;;;;;;14.50;14.50;;;;;;;;5061570;28;11527;-75
2021/12/27 10:48:31;;;;;;;;;10.75;10.75;;;;;;;;5061205;28;12378;-76
2021/12/27 10:50:57;;;;;;;;;13.00;11.00;;;;;;;;5061316;28;12464;-76
2021/12/27 10:53:23;;;;;;;;;10.25;8.00;;;;;;;;5061836;28;11603;-77
2021/12/27 10:55:48;;;;;;;;;11.00;7.75;;;;;;;;5067362;28;22556;-77
2021/12/27 10:58:13;;;;;;;;;9.50;8.00;;;;;;;;5082048;28;10311;-78
2021/12/27 11:00:39;;;;;;;;;13.00;10.75;;;;;;;;5067680;28;21468;-77
2021/12/27 11:03:05;;;;;;;;;7.50;7.50;;;;;;;;5081619;28;23893;-77
2021/12/27 11:05:31;;;;;;;;;14.00;11.75;;;;;;;;5080999;28;22557;-77
2021/12/27 11:08:00;;;;;;;;;11.25;8.00;;;;;;;;5075929;28;24036;-76
2021/12/27 11:10:26;;;;;;;;;9.25;8.25;;;;;;;;5061011;28;22517;-77
2021/12/27 11:12:52;;;;;;;;;8.00;7.00;;;;;;;;5060590;28;21762;-77
2021/12/27 11:15:17;;;;;;;;;12.00;9.00;;;;;;;;5071369;28;12200;-77
2021/12/27 11:17:43;;;;;;;;;6.50;6.00;;;;;;;;5079044;28;21511;-77
2021/12/27 11:20:09;;;;;;;;;12.75;8.25;;;;;;;;5075121;28;21360;-78
2021/12/27 11:22:44;;;;;;;;;12.75;12.25;;;;;;;;5059161;28;21517;-77
2021/12/27 11:25:21;;;;;;;;;8.00;7.50;;;;;;;;5058583;28;16445;-77
2021/12/27 11:27:46;;;;;;;;;11.25;8.25;;;;;;;;5059760;28;23434;-78
2021/12/27 11:30:12;;;;;;;;;10.00;8.75;;;;;;;;5060503;28;21411;-78
2021/12/27 11:32:58;;;;;;;;;8.00;6.25;;;;;;;;5060607;28;10306;-79
2021/12/27 11:35:23;;;;;;;;;11.00;7.00;;;;;;;;5059051;28;21479;-77
2021/12/27 11:37:49;;;;;;;;;4.50;4.00;;;;;;;;5059991;28;21526;-81
2021/12/27 11:40:15;;;;;;;;;8.00;7.00;;;;;;;;5057956;28;21308;-81
2021/12/27 11:42:55;;;;;;;;;7.25;4.00;;;;;;;;5060483;28;10356;-80
2021/12/27 11:45:35;;;;;;;;;10.00;7.75;;;;;;;;5060766;28;11429;-78
2021/12/27 11:48:07;;;;;;;;;9.50;7.50;;;;;;;;5058702;28;23525;-82
2021/12/27 11:50:32;;;;;;;;;7.00;6.00;;;;;;;;5059701;28;21525;-81
2021/12/27 11:53:05;;;;;;;;;6.00;6.00;;;;;;;;5060199;28;11470;-82
2021/12/27 11:55:37;;;;;;;;;7.00;7.00;;;;;;;;5060267;28;8870;-81
2021/12/27 11:58:02;;;;;;;;;10.75;8.75;;;;;;;;5060536;28;11451;-82
2021/12/27 12:00:28;;;;;;;;;8.00;6.00;;;;;;;;5059950;28;22026;-81
2021/12/27 12:03:07;;;;;;;;;4.00;4.00;;;;;;;;5058162;28;24471;-87
2021/12/27 12:05:47;;;;;;;;;7.00;6.00;;;;;;;;5058662;28;12057;-82
2021/12/27 12:08:17;;;;;;;;;8.25;8.00;;;;;;;;5060228;28;11446;-81
2021/12/27 12:10:51;;;;;;;;;6.50;6.00;;;;;;;;5060463;28;11452;-87
2021/12/27 12:13:21;;;;;;;;;8.00;8.00;;;;;;;;5060870;28;13013;-83
2021/12/27 12:16:09;;;;;;;;;2.00;0.25;;;;;;;;5060240;28;11417;-84
2021/12/27 12:18:37;;;;;;;;;6.25;6.25;;;;;;;;5057896;28;13458;-80
2021/12/27 12:21:03;;;;;;;;;5.00;5.00;;;;;;;;5064363;28;11492;-82
2021/12/27 12:23:28;;;;;;;;;8.00;6.00;;;;;;;;5058419;28;13883;-82
2021/12/27 12:26:00;;;;;;;;;7.25;6.00;;;;;;;;5059840;28;9640;-83
2021/12/27 12:28:26;;;;;;;;;5.25;5.25;;;;;;;;5058392;28;9426;-84
2021/12/27 12:30:51;;;;;;;;;10.00;4.00;;;;;;;;5060203;28;11397;-84
2021/12/27 12:33:19;;;;;;;;;7.50;7.50;;;;;;;;5059755;28;21540;-85
2021/12/27 12:35:49;;;;;;;;;6.00;6.00;;;;;;;;5059661;28;22619;-85
2021/12/27 12:38:27;;;;;;;;;5.75;5.00;;;;;;;;5060007;28;11473;-85
2021/12/27 12:40:58;;;;;;;;;7.50;5.25;;;;;;;;5059065;28;11451;-81
2021/12/27 12:43:42;;;;;;;;;4.25;4.25;;;;;;;;5069376;28;11434;-77
2021/12/27 12:46:18;;;;;;;;;5.00;5.00;;;;;;;;5078054;28;11467;-84
2021/12/27 12:48:44;;;;;;;;;6.00;6.00;;;;;;;;5078977;28;11479;-81
2021/12/27 12:51:09;;;;;;;;;6.00;6.00;;;;;;;;5079416;28;11565;-78
2021/12/27 12:53:35;;;;;;;;;6.75;6.75;;;;;;;;5080125;28;11518;-80
2021/12/27 12:56:01;;;;;;;;;8.50;6.25;;;;;;;;5080198;28;10049;-77
2021/12/27 12:58:34;;;;;;;;;4.00;4.00;;;;;;;;5079598;28;11662;-78
2021/12/27 13:01:06;;;;;;;;;8.50;5.00;;;;;;;;5080570;28;11575;-78
2021/12/27 13:03:32;;;;;;;;;5.25;5.00;;;;;;;;5079674;28;11462;-77
2021/12/27 13:05:58;;;;;;;;;6.50;5.00;;;;;;;;5079777;28;11425;-77
2021/12/27 13:08:23;;;;;;;;;4.00;4.00;;;;;;;;5080407;28;10548;-77
2021/12/27 13:10:51;;;;;;;;;4.50;3.75;;;;;;;;5080290;28;11441;-77
2021/12/27 13:13:18;;;;;;;;;6.00;3.75;;;;;;;;5078462;28;10397;-77
2021/12/27 13:15:57;;;;;;;;;8.50;5.00;;;;;;;;5080571;28;11527;-76
2021/12/27 13:18:27;;;;;;;;;4.75;4.75;;;;;;;;5086534;28;11583;-77
2021/12/27 13:21:12;;;;;;;;;5.00;4.00;;;;;;;;5088420;28;11970;-78
2021/12/27 13:23:39;;;;;;;;;4.75;4.00;;;;;;;;5089415;28;12078;-77
2021/12/27 13:26:17;;;;;;;;;9.25;5.50;;;;;;;;5085874;28;11486;-77
2021/12/27 13:28:49;;;;;;;;;3.75;3.75;;;;;;;;5085342;28;11550;-77
2021/12/27 13:31:15;;;;;;;;;6.25;3.25;;;;;;;;5088706;28;11605;-77
2021/12/27 13:33:43;;;;;;;;;2.25;2.25;;;;;;;;5087907;28;11543;-78
2021/12/27 13:36:12;;;;;;;;;5.75;4.75;;;;;;;;5081107;28;11454;-81
2021/12/27 13:38:40;;;;;;;;;5.00;4.50;;;;;;;;5076616;28;11463;-76
2021/12/27 13:41:05;;;;;;;;;8.50;4.25;;;;;;;;5078965;28;11467;-81
2021/12/27 13:43:31;;;;;;;;;4.00;4.00;;;;;;;;5077409;28;13704;-85
2021/12/27 13:46:08;;;;;;;;;4.00;4.00;;;;;;;;5079767;28;11569;-91
2021/12/27 13:48:34;;;;;;;;;5.00;5.00;;;;;;;;5080701;28;8793;-89
2021/12/27 13:51:00;;;;;;;;;4.25;4.00;;;;;;;;5079033;28;11486;-88
2021/12/27 13:53:25;;;;;;;;;4.50;4.00;;;;;;;;5085298;28;10635;-85
2021/12/27 13:55:51;;;;;;;;;4.00;4.00;;;;;;;;5097454;28;11465;-86
2021/12/27 13:58:23;;;;;;;;;6.00;6.00;;;;;;;;5097246;28;8872;-83
2021/12/27 14:00:52;;;;;;;;;4.50;4.00;;;;;;;;5099306;28;9334;-88
2021/12/27 14:03:25;;;;;;;;;5.00;4.25;;;;;;;;5099796;28;11533;-81
2021/12/27 14:05:52;;;;;;;;;7.00;7.00;;;;;;;;5102282;28;11420;-80
2021/12/27 14:08:18;;;;;;;;;5.75;5.00;;;;;;;;5093061;28;11561;-82
2021/12/27 14:10:57;;;;;;;;;9.00;5.50;;;;;;;;5088281;28;11726;-82
2021/12/27 14:13:23;;;;;;;;;6.25;6.25;;;;;;;;5082897;28;12111;-81
2021/12/27 14:15:48;;;;;;;;;4.75;4.75;;;;;;;;5082081;28;11525;-78
2021/12/27 14:18:15;;;;;;;;;8.50;6.50;;;;;;;;5082968;28;10911;-78
2021/12/27 14:20:40;;;;;;;;;6.25;5.00;;;;;;;;5082526;28;11369;-79
2021/12/27 14:23:09;;;;;;;;;5.25;4.25;;;;;;;;5082077;28;13006;-77
2021/12/27 14:25:35;;;;;;;;;6.25;6.25;;;;;;;;5082134;28;11397;-77